FMNMSBGL

Guest
Details From FMNM - Philibert Tsiranana
To SBGL - Galeão Antonio Carlos Jombim
Flight Number -
Tags Generated
Created
Modified
Stats Distance 5,023 nm / 9,303 km
Max Altitude 0 ft / 0 m
Waypoints 3
Social Downloads 0
Likes 0
Share VATSIM

Download

Looking for another format? Having issues loading an existing format? Contact us
Advertisement - Login to hide

Notes

Generated

Route

FMNM R1506 SBGL

ID Type Via Altitude Latitude Longitude Leg Dist Tot Dist Heading (true) Name
O FMNM APT - 0 ft / 0 m -15.66046˚ 46.34422˚ - 0 nm - -
R1506 FIX - 0 ft / 0 m -22.81244˚ -43.26360˚ 5023 nm 5023 nm 248° / 284° -
O SBGL APT - 0 ft / 0 m -22.81244˚ -43.26360˚ 0 nm 5023 nm 0° / 180° -

Altitude Profile

Advertisement - Login to hide

Weather


0- 5 10 15 20 25 30 35+ Temperature / ° C

Clouds and Precipitation
Forecast for 2018-05-26 18:00 UTC. Updated 5 hours ago

Ground ~20,000 ft ~40,000 ft Winds

FMNM

Details ICAO FMNM (MJN)
Name PHILIBERT TSIRANANA
Region Comoros, Mayotte, Réunion and Madagascar
Timezone Indian/Antananarivo (UTC+3.0)
Stats Elevation 87 ft / 27 m (AMSL)
Location -15.667144° 46.351829°
Runways 1
Magnetic Variation 11.247° W

METAR

FMNM 262100Z 00000KT 9999 FEW040 24/22 Q1015

Decode

TAF

TAF FMNM 261700Z 2618/2718 14005KT 9999 FEW023= TAF FMMT 261700Z 2618/2718 22008KT 9000 FEW007 SCT017 BKN033 TEMPO 2618/2718 4000 SHRA BECMG 2706/2709 14010KT

Decode

Departure Runways

ID Width Length Bearing (true) Bearing (mag) Surface Threshold Offset Overrun Length
14 148 ft / 45 m 7,235 ft / 2,205 m 132.37° 143.62° Asphalt 0 ft / 0 m 98 ft / 30 m
32 148 ft / 45 m 7,235 ft / 2,205 m 312.37° 323.62° Asphalt 0 ft / 0 m 98 ft / 30 m

SBGL

Details ICAO SBGL (GIG)
Name Galeao Antonio Carlos Jombim
Region Brazil
Timezone America/Sao_Paulo (UTC-3.0)
Stats Elevation 28 ft / 9 m (AMSL)
Location -22.808938° -43.243681°
Runways 2
Magnetic Variation 22.812° W

METAR

SBGL 262100Z 13006KT 9999 FEW020 23/17 Q1020

Decode

TAF

TAF TAF SBGL 261430Z 2618/2724 15010KT 9999 SCT025TN19/2709Z TX26/2717Z TEMPO 2618/2620 6000 RA BKN020 BECMG 2623/2701 10005KT BECMG 2703/2705 SCT015 BECMG 2708/2710 02005KT BECMG 2712/2714 08005KT FEW020 BECMG 2715/2717 14015KT RMK PHQ

Decode

Destination Runways

ID Width Length Bearing (true) Bearing (mag) Surface Threshold Offset Overrun Length
10 148 ft / 45 m 13,128 ft / 4,001 m 74.39° 97.20° Concrete 0 ft / 0 m 175 ft / 53 m
15 154 ft / 47 m 10,418 ft / 3,175 m 125.78° 148.59° Asphalt 0 ft / 0 m 185 ft / 56 m
28 148 ft / 45 m 13,128 ft / 4,001 m 254.38° 277.19° Concrete 0 ft / 0 m 175 ft / 53 m
33 154 ft / 47 m 10,418 ft / 3,175 m 305.78° 328.59° Asphalt 0 ft / 0 m 185 ft / 56 m

Approach Navaids

Runway Type Ident Frequency Range Bearing (true) Bearing (mag) Slope Elevation
10 Localiser ITB 109.30 MHz 18 nm / 33 km 74.25° 97.06° - 16 ft / 5 m (AMSL)
10 Glidescope ITB 109.30 MHz 10 nm / 19 km 74.39° 97.20° 3.00° 16 ft / 5 m (AMSL)
15 Localiser IGL 110.30 MHz 18 nm / 33 km 125.61° 148.42° - 12 ft / 4 m (AMSL)
15 Glidescope IGL 110.30 MHz 10 nm / 19 km 125.78° 148.59° 3.00° 17 ft / 5 m (AMSL)
15 DME IGL 110.30 MHz 18 nm / 33 km - - - 17 ft / 5 m (AMSL)
28 Localiser ILM 111.50 MHz 18 nm / 33 km 254.59° 277.40° - 28 ft / 9 m (AMSL)
28 Glidescope ILM 111.50 MHz 10 nm / 19 km 254.39° 277.20° 2.94° 28 ft / 9 m (AMSL)
28 DME ILM 111.50 MHz 18 nm / 33 km - - - 28 ft / 9 m (AMSL)